This is the latest recevied weather packets stored in our database for station/object DL1GRJ-13. If no packets are shown the sender has not sent any weather packets the latest 10 day(s).
| Time | Temp. | Humidity | Pressure | Rain* | Wind** | Luminosity | Snow |
|---|---|---|---|---|---|---|---|
| 1777532437 | 4.44° C | 44% | 1024.1 hPa | - | - | - | - |
| 1777530637 | 3.33° C | 47% | 1024.2 hPa | - | - | - | - |
| 1777528837 | 2.78° C | 49% | 1024.3 hPa | - | - | - | - |
| 1777527037 | 2.22° C | 50% | 1024.1 hPa | - | - | - | - |
| 1777525237 | 1.67° C | 52% | 1024 hPa | - | - | - | - |
| 1777523437 | 1.67° C | 52% | 1023.8 hPa | - | - | - | - |
| 1777521636 | 1.67° C | 51% | 1023.7 hPa | - | - | - | - |
| 1777519836 | 1.67° C | 50% | 1023.7 hPa | - | - | - | - |
| 1777518036 | 2.22° C | 48% | 1023.9 hPa | - | - | - | - |
| 1777516236 | 3.33° C | 46% | 1023.8 hPa | - | - | - | - |
| 1777514436 | 3.33° C | 44% | 1023.7 hPa | - | - | - | - |
| 1777512636 | 3.89° C | 43% | 1023.3 hPa | - | - | - | - |
| 1777510836 | 4.44° C | 42% | 1023.3 hPa | - | - | - | - |
| 1777509036 | 5° C | 42% | 1023.4 hPa | - | - | - | - |
| 1777507235 | 5° C | 40% | 1023.3 hPa | - | - | - | - |
| 1777505435 | 5.56° C | 39% | 1023.3 hPa | - | - | - | - |
| 1777503635 | 6.11° C | 38% | 1023.4 hPa | - | - | - | - |
| 1777501835 | 6.67° C | 39% | 1023.3 hPa | - | - | - | - |
| 1777500035 | 6.67° C | 39% | 1023.2 hPa | - | - | - | - |
| 1777498235 | 7.22° C | 38% | 1023.2 hPa | - | - | - | - |
| 1777496435 | 8.33° C | 38% | 1023 hPa | - | - | - | - |
| 1777494635 | 8.89° C | 37% | 1022.8 hPa | - | - | - | - |
| 1777492834 | 9.44° C | 36% | 1022.6 hPa | - | - | - | - |
| 1777491034 | 10° C | 35% | 1022.3 hPa | - | - | - | - |
| 1777489234 | 11.11° C | 35% | 1022 hPa | - | - | - | - |
* Rain since midnight (hover to see other rain measurements)
** Current wind speed in m/s (hover to see current wind gust speed)